Terminal Aerodrome Forecast
Issued by NWS

Home | Current Version | Previous Version | Text Only | Print | Product List | Glossary On
Versions: 1 2 3 4 5 6 7 8 9 10 11 12 13 14 15 16 17 18 19 20 21 22 23 24 25 26 27 28
000
FTUS41 KBUF 281120
TAFJHW
TAF
KJHW 281120Z 2812/2912 04006KT P6SM SCT080 BKN140
     FM281500 05012KT P6SM OVC040
     FM282100 04014KT P6SM OVC050
     FM290000 04012G19KT P6SM OVC090
     FM290400 04009KT P6SM BKN140
      AMD LTD TO CLD VIS AND WIND=

USA.gov is the U.S. government's official web portal to all federal, state and local government web resources and services.